Time;durP1;ratioP1;P1;durP2;ratioP2;P2;SDS_P1;SDS_P2;PMS_P1;PMS_P2;Temp;Humidity;BMP_temperature;BMP_pressure;BME280_temperature;BME280_humidity;BME280_pressure;Samples;Min_cycle;Max_cycle;Signal;HPM_P1;HPM_P2
2024/03/14 00:02:19;;;;;;;8.90;4.53;;;;;;;;;;5096324;28;20036;-81
2024/03/14 00:04:45;;;;;;;10.10;4.85;;;;;;;;;;5097191;27;20039;-84
2024/03/14 00:07:12;;;;;;;5.60;3.28;;;;;;;;;;5070014;28;20055;-82
2024/03/14 00:09:38;;;;;;;5.68;3.05;;;;;;;;;;5072660;28;20039;-84
2024/03/14 00:12:04;;;;;;;9.82;5.78;;;;;;;;;;5084789;27;20613;-83
2024/03/14 00:14:30;;;;;;;8.63;5.00;;;;;;;;;;5077312;28;20032;-79
2024/03/14 00:16:56;;;;;;;6.38;3.50;;;;;;;;;;5094032;27;20072;-83
2024/03/14 00:19:21;;;;;;;7.57;4.57;;;;;;;;;;5091836;27;20039;-79
2024/03/14 00:21:46;;;;;;;9.38;4.85;;;;;;;;;;5094965;28;20025;-82
2024/03/14 00:24:12;;;;;;;9.73;5.45;;;;;;;;;;5084337;28;20028;-81
2024/03/14 00:26:37;;;;;;;6.95;3.58;;;;;;;;;;5082885;28;20032;-81
2024/03/14 00:29:05;;;;;;;10.68;6.13;;;;;;;;;;5100361;27;20031;-82
2024/03/14 00:31:39;;;;;;;10.13;5.45;;;;;;;;;;5101612;27;20039;-81
2024/03/14 00:34:07;;;;;;;8.00;4.85;;;;;;;;;;5063407;27;20044;-83
2024/03/14 00:36:37;;;;;;;8.40;4.03;;;;;;;;;;5101679;27;20373;-81
2024/03/14 00:39:06;;;;;;;9.60;4.95;;;;;;;;;;5100300;27;20591;-83
2024/03/14 00:41:35;;;;;;;4.78;2.72;;;;;;;;;;5080030;28;20057;-81
2024/03/14 00:44:03;;;;;;;14.00;6.88;;;;;;;;;;5099824;28;20612;-82
2024/03/14 00:46:29;;;;;;;12.60;5.45;;;;;;;;;;5102249;27;20650;-82
2024/03/14 00:48:55;;;;;;;8.45;4.38;;;;;;;;;;5082061;27;20093;-81
2024/03/14 00:51:21;;;;;;;12.15;6.47;;;;;;;;;;5096771;27;20039;-83
2024/03/14 00:53:46;;;;;;;4.32;2.95;;;;;;;;;;5105217;27;20035;-81
2024/03/14 00:56:13;;;;;;;13.38;6.38;;;;;;;;;;5094843;28;20512;-82
2024/03/14 00:58:39;;;;;;;13.63;6.60;;;;;;;;;;5069424;28;20074;-84
2024/03/14 01:01:04;;;;;;;12.32;5.60;;;;;;;;;;5101351;27;20109;-82
2024/03/14 01:03:32;;;;;;;16.23;7.15;;;;;;;;;;5100926;27;20694;-82
2024/03/14 01:05:58;;;;;;;14.73;7.40;;;;;;;;;;5082186;27;20043;-80
2024/03/14 01:08:24;;;;;;;16.35;7.55;;;;;;;;;;5101611;27;20043;-82
2024/03/14 01:10:49;;;;;;;16.90;7.78;;;;;;;;;;5096431;28;20035;-83
2024/03/14 01:13:15;;;;;;;12.90;6.55;;;;;;;;;;5093878;28;20040;-81
2024/03/14 01:15:40;;;;;;;12.63;6.78;;;;;;;;;;5099424;27;20036;-80
2024/03/14 01:18:06;;;;;;;12.23;6.45;;;;;;;;;;5098302;28;20043;-82
2024/03/14 01:20:31;;;;;;;4.30;2.78;;;;;;;;;;5104295;27;20594;-83
2024/03/14 01:22:56;;;;;;;16.45;8.02;;;;;;;;;;5089320;27;20036;-81
2024/03/14 01:25:22;;;;;;;14.90;6.85;;;;;;;;;;5068437;28;20044;-81
2024/03/14 01:27:49;;;;;;;18.02;7.70;;;;;;;;;;5087315;28;20595;-80
2024/03/14 01:30:14;;;;;;;14.35;7.00;;;;;;;;;;5064537;28;20745;-84
2024/03/14 01:32:40;;;;;;;16.23;7.35;;;;;;;;;;5088881;28;20038;-79
2024/03/14 01:35:05;;;;;;;16.15;7.40;;;;;;;;;;5073125;28;20068;-81
2024/03/14 01:37:31;;;;;;;13.95;6.20;;;;;;;;;;5081782;28;20032;-82
2024/03/14 01:39:57;;;;;;;15.40;6.65;;;;;;;;;;5075673;27;20039;-84
2024/03/14 01:42:23;;;;;;;11.90;5.82;;;;;;;;;;5099799;28;20561;-80
2024/03/14 01:45:00;;;;;;;14.43;6.72;;;;;;;;;;5094350;27;20090;-80
2024/03/14 01:47:26;;;;;;;15.15;6.93;;;;;;;;;;5098567;27;20130;-83
2024/03/14 01:49:52;;;;;;;5.22;3.22;;;;;;;;;;5099889;27;20051;-84
2024/03/14 01:52:21;;;;;;;12.90;5.20;;;;;;;;;;5100687;27;20035;-83
2024/03/14 01:54:49;;;;;;;15.35;6.85;;;;;;;;;;5069186;27;20096;-88
2024/03/14 01:57:15;;;;;;;13.32;6.07;;;;;;;;;;5087410;28;20032;-85
2024/03/14 01:59:41;;;;;;;13.35;6.65;;;;;;;;;;5082320;28;20729;-87
2024/03/14 02:02:07;;;;;;;11.43;5.72;;;;;;;;;;5074032;28;20044;-82
2024/03/14 02:04:42;;;;;;;10.55;4.85;;;;;;;;;;5075865;28;20604;-83
2024/03/14 02:07:09;;;;;;;4.38;2.67;;;;;;;;;;5099286;27;20063;-83
2024/03/14 02:09:37;;;;;;;6.70;3.60;;;;;;;;;;5080282;27;20186;-83
2024/03/14 02:12:05;;;;;;;5.75;3.10;;;;;;;;;;5098701;27;20043;-81
2024/03/14 02:14:31;;;;;;;6.47;3.17;;;;;;;;;;5101615;27;20032;-80
2024/03/14 02:17:00;;;;;;;7.20;3.08;;;;;;;;;;5099367;28;20276;-82
2024/03/14 02:19:26;;;;;;;3.97;2.00;;;;;;;;;;5102567;27;20132;-82
2024/03/14 02:21:51;;;;;;;3.35;1.65;;;;;;;;;;5098959;27;20043;-81
2024/03/14 02:24:17;;;;;;;4.43;2.70;;;;;;;;;;5098991;27;20053;-81
2024/03/14 02:26:42;;;;;;;3.17;1.85;;;;;;;;;;5084156;27;20042;-80
2024/03/14 02:29:08;;;;;;;4.82;2.13;;;;;;;;;;5076980;28;20115;-83
2024/03/14 02:31:34;;;;;;;3.17;1.88;;;;;;;;;;5072912;28;20550;-84
2024/03/14 02:34:00;;;;;;;5.47;2.78;;;;;;;;;;5097627;28;20046;-87
2024/03/14 02:36:26;;;;;;;4.05;2.63;;;;;;;;;;5086599;28;20039;-83
2024/03/14 02:38:54;;;;;;;4.10;2.55;;;;;;;;;;5092588;27;20647;-84
2024/03/14 02:41:20;;;;;;;7.57;3.95;;;;;;;;;;5099026;28;20031;-80
2024/03/14 02:43:46;;;;;;;7.28;3.55;;;;;;;;;;5072542;27;20036;-80
2024/03/14 02:46:11;;;;;;;9.40;4.38;;;;;;;;;;5101274;27;20055;-81
2024/03/14 02:48:37;;;;;;;7.25;3.92;;;;;;;;;;5095109;28;20052;-82
2024/03/14 02:51:05;;;;;;;4.13;2.33;;;;;;;;;;5081937;28;20025;-82
2024/03/14 02:53:31;;;;;;;6.07;2.88;;;;;;;;;;5082599;28;20316;-81
2024/03/14 02:55:57;;;;;;;5.20;3.15;;;;;;;;;;5090594;28;20095;-82
2024/03/14 02:58:23;;;;;;;6.47;3.53;;;;;;;;;;5086448;28;20626;-84
2024/03/14 03:00:48;;;;;;;3.88;2.25;;;;;;;;;;5089570;27;20043;-82
2024/03/14 03:03:15;;;;;;;10.65;5.20;;;;;;;;;;5100620;28;20070;-86
2024/03/14 03:05:40;;;;;;;10.02;4.53;;;;;;;;;;5081725;28;20036;-85
2024/03/14 03:08:07;;;;;;;6.40;3.30;;;;;;;;;;5094544;27;20423;-83
2024/03/14 03:10:33;;;;;;;5.00;2.90;;;;;;;;;;5103400;27;20035;-85
2024/03/14 03:12:58;;;;;;;9.43;4.72;;;;;;;;;;5095435;27;20067;-83
2024/03/14 03:15:24;;;;;;;7.90;4.22;;;;;;;;;;5100889;27;20481;-82
2024/03/14 03:17:50;;;;;;;6.28;3.25;;;;;;;;;;5082127;27;20032;-84
2024/03/14 03:20:16;;;;;;;2.38;1.48;;;;;;;;;;5103519;27;20028;-84
2024/03/14 03:25:28;;;;;;;7.05;3.67;;;;;;;;;;5095975;28;20045;-84
2024/03/14 03:27:53;;;;;;;8.68;3.47;;;;;;;;;;5099312;27;20146;-81
2024/03/14 03:30:19;;;;;;;6.20;3.22;;;;;;;;;;5101357;28;20522;-84
2024/03/14 03:32:44;;;;;;;12.20;4.90;;;;;;;;;;5087008;27;20031;-82
2024/03/14 03:35:11;;;;;;;5.50;2.95;;;;;;;;;;5097263;27;20098;-83
2024/03/14 03:37:37;;;;;;;8.75;4.35;;;;;;;;;;5075900;28;20039;-83
2024/03/14 03:40:06;;;;;;;5.75;2.92;;;;;;;;;;5085074;28;20081;-83
2024/03/14 03:42:32;;;;;;;5.75;3.08;;;;;;;;;;5079190;28;20089;-82
2024/03/14 03:44:57;;;;;;;4.80;2.58;;;;;;;;;;5080008;28;20127;-83
2024/03/14 03:47:23;;;;;;;11.13;4.68;;;;;;;;;;5090142;28;20059;-83
2024/03/14 03:49:48;;;;;;;7.38;3.80;;;;;;;;;;5087886;27;20076;-83
2024/03/14 03:52:13;;;;;;;4.90;2.72;;;;;;;;;;5099078;27;21776;-81
2024/03/14 03:54:39;;;;;;;8.25;3.72;;;;;;;;;;5092903;27;20105;-82
2024/03/14 03:57:04;;;;;;;6.30;2.92;;;;;;;;;;5084605;28;20050;-85
2024/03/14 03:59:30;;;;;;;9.23;3.97;;;;;;;;;;5090833;28;20118;-79
2024/03/14 04:01:56;;;;;;;5.95;3.45;;;;;;;;;;5105770;27;20058;-83
2024/03/14 04:04:22;;;;;;;4.88;2.95;;;;;;;;;;5089419;27;20038;-81
2024/03/14 04:06:48;;;;;;;5.53;2.95;;;;;;;;;;5106346;27;20059;-86
2024/03/14 04:09:15;;;;;;;9.30;4.65;;;;;;;;;;5068643;27;20055;-82
2024/03/14 04:11:43;;;;;;;3.92;2.22;;;;;;;;;;5091413;28;20032;-82
2024/03/14 04:14:09;;;;;;;10.45;5.20;;;;;;;;;;5088599;28;20040;-81
2024/03/14 04:16:35;;;;;;;9.27;4.53;;;;;;;;;;5086933;27;20043;-81
2024/03/14 04:19:01;;;;;;;6.47;3.20;;;;;;;;;;5093680;27;20086;-82
2024/03/14 04:21:27;;;;;;;10.25;5.35;;;;;;;;;;5095733;27;20067;-81
2024/03/14 04:23:53;;;;;;;10.05;5.45;;;;;;;;;;5084600;27;20038;-81
2024/03/14 04:26:18;;;;;;;7.40;3.97;;;;;;;;;;5085266;28;20606;-80
2024/03/14 04:28:44;;;;;;;7.85;4.07;;;;;;;;;;5079263;28;20036;-81
2024/03/14 04:31:09;;;;;;;9.40;4.53;;;;;;;;;;5066241;28;20035;-83
2024/03/14 04:33:35;;;;;;;8.93;4.38;;;;;;;;;;5068261;28;20966;-82
2024/03/14 04:36:03;;;;;;;6.60;4.03;;;;;;;;;;5093191;28;20073;-82
2024/03/14 04:38:28;;;;;;;10.13;5.55;;;;;;;;;;5085917;27;20535;-84
2024/03/14 04:40:56;;;;;;;10.27;4.88;;;;;;;;;;5087409;27;20032;-83
2024/03/14 04:43:24;;;;;;;10.32;4.68;;;;;;;;;;5066177;27;20093;-81
2024/03/14 04:45:51;;;;;;;8.43;3.85;;;;;;;;;;5095272;27;20038;-81
2024/03/14 04:48:17;;;;;;;11.63;4.95;;;;;;;;;;5082076;28;20461;-82
2024/03/14 04:50:43;;;;;;;3.47;2.20;;;;;;;;;;5073068;28;20024;-82
2024/03/14 04:53:09;;;;;;;7.50;3.70;;;;;;;;;;5070053;28;20036;-81
2024/03/14 04:55:35;;;;;;;8.75;4.30;;;;;;;;;;5088368;27;20679;-82
2024/03/14 04:58:00;;;;;;;7.20;3.45;;;;;;;;;;5082327;27;20035;-82
2024/03/14 05:00:26;;;;;;;9.85;5.07;;;;;;;;;;5096389;27;20055;-81
2024/03/14 05:02:51;;;;;;;8.20;4.05;;;;;;;;;;5096005;27;20035;-83
2024/03/14 05:05:17;;;;;;;5.88;3.28;;;;;;;;;;5095499;28;20364;-82
2024/03/14 05:07:43;;;;;;;5.95;3.50;;;;;;;;;;5096721;28;20107;-84
2024/03/14 05:10:09;;;;;;;7.25;3.80;;;;;;;;;;5079116;28;20109;-82
2024/03/14 05:12:35;;;;;;;8.90;4.28;;;;;;;;;;5082340;28;20109;-81
2024/03/14 05:15:04;;;;;;;7.53;4.15;;;;;;;;;;5085773;28;20034;-81
2024/03/14 05:17:30;;;;;;;7.93;3.85;;;;;;;;;;5080195;27;20539;-83
2024/03/14 05:19:55;;;;;;;8.75;3.88;;;;;;;;;;5082439;28;20093;-80
2024/03/14 05:22:22;;;;;;;10.02;4.50;;;;;;;;;;5099861;28;20087;-83
2024/03/14 05:24:48;;;;;;;10.55;4.57;;;;;;;;;;5098679;28;20046;-81
2024/03/14 05:27:13;;;;;;;7.15;3.72;;;;;;;;;;5080372;28;20114;-80
2024/03/14 05:29:39;;;;;;;10.38;4.40;;;;;;;;;;5097633;28;20024;-84
2024/03/14 05:32:27;;;;;;;7.78;4.20;;;;;;;;;;5069651;27;20748;-84
2024/03/14 05:34:53;;;;;;;6.97;3.78;;;;;;;;;;5085424;27;20027;-84
2024/03/14 05:37:18;;;;;;;6.65;3.42;;;;;;;;;;5089176;28;20664;-84
2024/03/14 05:39:44;;;;;;;5.32;3.15;;;;;;;;;;5094059;27;20064;-82
2024/03/14 05:42:12;;;;;;;5.80;2.80;;;;;;;;;;5065976;28;20047;-81
2024/03/14 05:44:40;;;;;;;5.35;2.40;;;;;;;;;;5090303;28;20040;-84
2024/03/14 05:47:08;;;;;;;6.78;3.40;;;;;;;;;;5081862;28;20039;-83
2024/03/14 05:49:34;;;;;;;6.57;3.30;;;;;;;;;;5076976;27;20549;-83
2024/03/14 05:51:59;;;;;;;7.05;3.70;;;;;;;;;;5088423;27;20115;-79
2024/03/14 05:54:25;;;;;;;4.70;2.33;;;;;;;;;;5082064;28;20059;-82
2024/03/14 05:56:50;;;;;;;7.85;3.03;;;;;;;;;;5074863;28;20051;-80
2024/03/14 05:59:15;;;;;;;6.07;3.05;;;;;;;;;;5058097;28;20079;-79
2024/03/14 06:01:41;;;;;;;5.78;2.85;;;;;;;;;;5059822;28;20039;-79
2024/03/14 06:04:07;;;;;;;2.58;1.90;;;;;;;;;;5074364;28;20043;-77
2024/03/14 06:06:34;;;;;;;5.95;3.38;;;;;;;;;;5085188;27;20047;-80
2024/03/14 06:08:59;;;;;;;5.20;2.65;;;;;;;;;;5095279;27;20114;-79
2024/03/14 06:11:24;;;;;;;6.30;3.20;;;;;;;;;;5093186;27;20169;-80
2024/03/14 06:13:50;;;;;;;5.78;3.17;;;;;;;;;;5075270;28;20117;-78
2024/03/14 06:16:16;;;;;;;2.83;1.50;;;;;;;;;;5091860;28;20036;-79
2024/03/14 06:18:41;;;;;;;4.88;2.72;;;;;;;;;;5093806;27;20027;-79
2024/03/14 06:21:07;;;;;;;6.32;3.08;;;;;;;;;;5080988;27;20580;-78
2024/03/14 06:23:32;;;;;;;5.53;3.13;;;;;;;;;;5080755;28;20461;-79
2024/03/14 06:25:59;;;;;;;3.55;1.90;;;;;;;;;;5097889;27;20112;-80
2024/03/14 06:28:25;;;;;;;7.25;3.35;;;;;;;;;;5098902;27;20043;-80
2024/03/14 06:30:50;;;;;;;6.40;3.22;;;;;;;;;;5100770;28;20126;-80
2024/03/14 06:33:16;;;;;;;4.55;2.47;;;;;;;;;;5100118;27;20103;-80
2024/03/14 06:35:41;;;;;;;4.72;2.70;;;;;;;;;;5102369;28;20506;-80
2024/03/14 06:38:07;;;;;;;2.55;1.58;;;;;;;;;;5074005;28;20038;-79
2024/03/14 06:40:32;;;;;;;7.43;3.75;;;;;;;;;;5088173;28;20523;-79
2024/03/14 06:42:57;;;;;;;7.60;3.20;;;;;;;;;;5087617;28;20082;-80
2024/03/14 06:45:23;;;;;;;4.85;2.78;;;;;;;;;;5093673;28;20457;-80
2024/03/14 06:47:48;;;;;;;6.63;3.30;;;;;;;;;;5101431;28;20043;-80
2024/03/14 06:50:14;;;;;;;6.75;3.42;;;;;;;;;;5078690;28;22174;-79
2024/03/14 06:52:40;;;;;;;6.05;3.03;;;;;;;;;;5100529;28;20112;-80
2024/03/14 06:55:12;;;;;;;8.70;3.95;;;;;;;;;;5087760;27;20040;-80
2024/03/14 06:57:39;;;;;;;8.02;3.75;;;;;;;;;;5091107;28;20036;-79
2024/03/14 07:00:12;;;;;;;5.57;2.92;;;;;;;;;;5084189;28;20036;-80
2024/03/14 07:02:40;;;;;;;9.00;4.35;;;;;;;;;;5079409;28;20036;-80
2024/03/14 07:05:09;;;;;;;7.15;3.72;;;;;;;;;;5068450;28;20067;-80
2024/03/14 07:07:37;;;;;;;9.70;4.38;;;;;;;;;;5074417;28;20032;-80
2024/03/14 07:10:03;;;;;;;8.43;3.97;;;;;;;;;;5088163;28;20100;-79
2024/03/14 07:12:29;;;;;;;7.72;3.80;;;;;;;;;;5082487;28;20146;-79
2024/03/14 07:14:54;;;;;;;7.90;4.03;;;;;;;;;;5082900;28;20078;-80
2024/03/14 07:17:19;;;;;;;9.98;5.25;;;;;;;;;;5081386;28;20086;-80
2024/03/14 07:19:45;;;;;;;5.72;3.35;;;;;;;;;;5077576;28;20716;-79
2024/03/14 07:22:11;;;;;;;6.68;3.72;;;;;;;;;;5089416;28;20507;-79
2024/03/14 07:24:38;;;;;;;10.77;4.70;;;;;;;;;;5086368;28;20035;-79
2024/03/14 07:27:03;;;;;;;12.80;5.70;;;;;;;;;;5087603;28;20032;-79
2024/03/14 07:29:31;;;;;;;10.80;4.78;;;;;;;;;;5097304;28;20039;-79
2024/03/14 07:31:56;;;;;;;7.70;3.53;;;;;;;;;;5081805;28;20086;-79
2024/03/14 07:34:24;;;;;;;6.00;3.50;;;;;;;;;;5070087;28;20028;-79
2024/03/14 07:36:49;;;;;;;12.57;5.65;;;;;;;;;;5093942;28;20036;-79
2024/03/14 07:39:15;;;;;;;12.10;5.35;;;;;;;;;;5077387;28;20036;-79
2024/03/14 07:41:43;;;;;;;7.72;4.20;;;;;;;;;;5083117;28;20516;-80
2024/03/14 07:44:09;;;;;;;7.72;3.95;;;;;;;;;;5085541;28;20131;-79
2024/03/14 07:46:34;;;;;;;7.38;2.95;;;;;;;;;;5084566;27;20115;-79
2024/03/14 07:49:00;;;;;;;9.32;4.70;;;;;;;;;;5083544;28;20087;-80
2024/03/14 07:51:26;;;;;;;9.65;4.45;;;;;;;;;;5084284;28;20066;-79
2024/03/14 07:53:53;;;;;;;13.48;5.95;;;;;;;;;;5093369;27;20036;-81
2024/03/14 07:56:18;;;;;;;10.57;6.25;;;;;;;;;;5091516;28;20035;-79
2024/03/14 07:58:44;;;;;;;10.15;5.38;;;;;;;;;;5095572;28;20424;-80
2024/03/14 08:01:19;;;;;;;12.23;5.03;;;;;;;;;;5074936;27;20036;-80
2024/03/14 08:03:47;;;;;;;8.27;4.22;;;;;;;;;;5079624;27;20397;-78
2024/03/14 08:06:18;;;;;;;9.73;5.18;;;;;;;;;;5085968;28;20044;-79
2024/03/14 08:08:44;;;;;;;8.20;4.95;;;;;;;;;;5079598;27;20054;-79
2024/03/14 08:11:11;;;;;;;10.75;5.00;;;;;;;;;;5086200;27;20401;-80
2024/03/14 08:13:37;;;;;;;14.68;6.50;;;;;;;;;;5107321;27;20023;-80
2024/03/14 08:16:14;;;;;;;12.27;5.63;;;;;;;;;;5096936;27;20432;-80
2024/03/14 08:18:42;;;;;;;15.60;6.30;;;;;;;;;;5090251;27;20031;-80
2024/03/14 08:21:13;;;;;;;14.18;6.18;;;;;;;;;;5089934;27;20101;-80
2024/03/14 08:23:41;;;;;;;13.13;5.57;;;;;;;;;;5085072;27;20031;-79
2024/03/14 08:26:07;;;;;;;13.55;7.13;;;;;;;;;;5103195;27;20594;-79
2024/03/14 08:28:32;;;;;;;15.07;7.15;;;;;;;;;;5099857;27;20036;-80
2024/03/14 08:31:00;;;;;;;9.95;5.32;;;;;;;;;;5081032;27;20043;-80
2024/03/14 08:33:26;;;;;;;17.77;8.40;;;;;;;;;;5087732;28;20043;-80
2024/03/14 08:35:52;;;;;;;14.13;6.47;;;;;;;;;;5085406;27;20115;-78
2024/03/14 08:38:18;;;;;;;14.20;6.65;;;;;;;;;;5084466;28;20035;-78
2024/03/14 08:40:45;;;;;;;12.48;5.97;;;;;;;;;;5088048;27;20068;-78
2024/03/14 08:43:13;;;;;;;13.13;6.32;;;;;;;;;;5095574;27;20121;-78
2024/03/14 08:45:39;;;;;;;7.72;4.55;;;;;;;;;;5079368;28;20531;-79
2024/03/14 08:48:07;;;;;;;13.60;6.38;;;;;;;;;;5085969;27;20040;-78
2024/03/14 08:50:35;;;;;;;13.85;5.93;;;;;;;;;;5092104;27;20044;-78
2024/03/14 08:53:01;;;;;;;10.57;5.78;;;;;;;;;;5089079;27;20028;-78
2024/03/14 08:55:33;;;;;;;13.73;6.72;;;;;;;;;;5096348;27;20077;-79
2024/03/14 08:58:02;;;;;;;6.88;3.45;;;;;;;;;;5095196;27;20613;-78
2024/03/14 09:00:28;;;;;;;15.88;6.60;;;;;;;;;;5099416;27;20128;-78
2024/03/14 09:02:53;;;;;;;8.88;4.93;;;;;;;;;;5107614;27;20090;-79
2024/03/14 09:05:18;;;;;;;11.40;6.20;;;;;;;;;;5091552;27;20036;-78
2024/03/14 09:07:45;;;;;;;12.18;6.53;;;;;;;;;;5099963;27;20159;-78
2024/03/14 09:10:23;;;;;;;22.00;9.10;;;;;;;;;;5102414;27;20149;-78
2024/03/14 09:12:55;;;;;;;11.60;6.07;;;;;;;;;;5105933;27;20035;-78
2024/03/14 09:15:24;;;;;;;12.75;6.25;;;;;;;;;;5100911;27;20039;-79
2024/03/14 09:17:50;;;;;;;13.05;6.30;;;;;;;;;;5093969;27;20573;-79
2024/03/14 09:20:21;;;;;;;16.00;8.32;;;;;;;;;;5083083;28;20521;-78
2024/03/14 09:22:53;;;;;;;18.10;8.98;;;;;;;;;;5097174;27;20114;-79
2024/03/14 09:25:23;;;;;;;21.05;9.30;;;;;;;;;;5104575;27;20111;-80
2024/03/14 09:27:51;;;;;;;14.45;6.90;;;;;;;;;;5108528;27;20122;-79
2024/03/14 09:30:17;;;;;;;14.23;6.50;;;;;;;;;;5091083;27;20036;-80
2024/03/14 09:32:42;;;;;;;12.82;6.45;;;;;;;;;;5075099;28;20036;-79
2024/03/14 09:35:13;;;;;;;13.38;5.70;;;;;;;;;;5089265;27;20753;-80
2024/03/14 09:37:39;;;;;;;10.95;5.57;;;;;;;;;;5092319;27;20032;-80
2024/03/14 09:40:12;;;;;;;10.60;4.63;;;;;;;;;;5078280;28;20043;-80
2024/03/14 09:42:39;;;;;;;11.38;5.50;;;;;;;;;;5106973;27;20411;-79
2024/03/14 09:45:04;;;;;;;9.85;6.15;;;;;;;;;;5086340;27;20081;-80
2024/03/14 09:47:40;;;;;;;11.40;5.50;;;;;;;;;;5080422;28;20040;-80
2024/03/14 09:50:17;;;;;;;12.35;6.07;;;;;;;;;;5063794;27;20564;-78
2024/03/14 09:52:43;;;;;;;8.43;4.82;;;;;;;;;;5109863;27;20039;-79
2024/03/14 09:55:12;;;;;;;12.05;5.80;;;;;;;;;;5100987;27;20508;-79
2024/03/14 09:57:38;;;;;;;13.15;6.80;;;;;;;;;;5098477;27;20507;-79
2024/03/14 10:00:08;;;;;;;8.00;4.60;;;;;;;;;;5087870;28;20095;-80
2024/03/14 10:02:35;;;;;;;5.10;3.20;;;;;;;;;;5070464;28;20043;-79
2024/03/14 10:05:01;;;;;;;9.95;5.38;;;;;;;;;;5082589;28;20040;-80
2024/03/14 10:07:29;;;;;;;8.10;4.30;;;;;;;;;;5086368;28;20064;-79
2024/03/14 10:09:54;;;;;;;8.80;5.07;;;;;;;;;;5088807;27;20049;-80
2024/03/14 10:12:21;;;;;;;8.85;4.82;;;;;;;;;;5100906;27;20043;-79
2024/03/14 10:14:58;;;;;;;9.52;4.93;;;;;;;;;;5108369;27;20031;-79
2024/03/14 10:17:25;;;;;;;6.18;3.45;;;;;;;;;;5096619;27;20064;-80
2024/03/14 10:19:50;;;;;;;6.72;3.55;;;;;;;;;;5078498;28;20793;-79
2024/03/14 10:22:16;;;;;;;10.27;5.47;;;;;;;;;;5103498;27;20103;-79
2024/03/14 10:24:41;;;;;;;7.25;4.05;;;;;;;;;;5089846;28;20036;-80
2024/03/14 10:27:07;;;;;;;5.10;3.22;;;;;;;;;;5100294;27;20043;-79
2024/03/14 10:29:33;;;;;;;9.88;5.35;;;;;;;;;;5102157;27;20028;-80
2024/03/14 10:32:00;;;;;;;10.65;5.07;;;;;;;;;;5101936;27;20031;-79
2024/03/14 10:34:25;;;;;;;7.95;4.00;;;;;;;;;;5108627;27;20383;-80
2024/03/14 10:36:54;;;;;;;9.70;4.57;;;;;;;;;;5092203;27;20050;-80
2024/03/14 10:39:23;;;;;;;9.68;4.65;;;;;;;;;;5100723;27;20073;-81
2024/03/14 10:41:49;;;;;;;9.23;5.07;;;;;;;;;;5076715;28;20031;-79
2024/03/14 10:44:21;;;;;;;8.00;4.88;;;;;;;;;;5081273;28;20392;-79
2024/03/14 10:46:51;;;;;;;7.57;4.88;;;;;;;;;;5087651;28;20044;-78
2024/03/14 10:49:22;;;;;;;4.83;3.20;;;;;;;;;;5101799;27;20050;-80
2024/03/14 10:51:51;;;;;;;6.00;3.38;;;;;;;;;;5081766;27;20032;-80
2024/03/14 10:54:26;;;;;;;9.95;5.07;;;;;;;;;;5111205;27;20045;-79
2024/03/14 10:56:52;;;;;;;9.50;5.25;;;;;;;;;;5095989;27;20520;-80
2024/03/14 10:59:22;;;;;;;8.82;4.88;;;;;;;;;;5097823;27;20139;-80
2024/03/14 11:01:54;;;;;;;5.20;3.03;;;;;;;;;;5090798;27;20089;-80
2024/03/14 11:04:23;;;;;;;6.75;3.78;;;;;;;;;;5065976;27;20043;-79
2024/03/14 11:06:56;;;;;;;9.68;5.45;;;;;;;;;;5076167;27;20110;-79
2024/03/14 11:09:25;;;;;;;8.70;5.03;;;;;;;;;;5085611;27;20035;-79
2024/03/14 11:11:54;;;;;;;9.27;4.82;;;;;;;;;;5083406;27;20043;-80
2024/03/14 11:14:48;;;;;;;8.27;4.68;;;;;;;;;;5078473;28;20036;-80
2024/03/14 11:17:15;;;;;;;4.15;2.70;;;;;;;;;;5075280;27;20043;-81
2024/03/14 11:19:46;;;;;;;11.07;4.47;;;;;;;;;;5086341;27;20035;-79
2024/03/14 11:22:13;;;;;;;7.20;4.72;;;;;;;;;;5082045;28;20043;-80
2024/03/14 11:24:40;;;;;;;8.77;4.68;;;;;;;;;;5083325;28;20036;-79
2024/03/14 11:27:06;;;;;;;10.20;4.75;;;;;;;;;;5075933;28;20040;-79
2024/03/14 11:29:33;;;;;;;6.55;3.63;;;;;;;;;;5082177;27;20051;-80
2024/03/14 11:32:22;;;;;;;8.77;4.40;;;;;;;;;;5087126;28;20524;-79
2024/03/14 11:34:48;;;;;;;5.15;3.22;;;;;;;;;;5050395;27;20096;-79
2024/03/14 11:37:14;;;;;;;9.93;4.93;;;;;;;;;;5080291;28;20459;-80
2024/03/14 11:39:46;;;;;;;9.93;6.20;;;;;;;;;;5075613;28;20112;-78
2024/03/14 11:42:13;;;;;;;11.90;5.90;;;;;;;;;;5058546;28;20044;-79
2024/03/14 11:44:43;;;;;;;5.07;3.35;;;;;;;;;;5071434;28;20032;-80
2024/03/14 11:47:13;;;;;;;3.95;2.35;;;;;;;;;;5065161;27;20037;-79
2024/03/14 11:49:42;;;;;;;9.93;4.63;;;;;;;;;;5087272;27;20078;-79
2024/03/14 11:52:11;;;;;;;8.40;4.60;;;;;;;;;;5086254;27;20050;-80
2024/03/14 11:54:41;;;;;;;9.02;5.72;;;;;;;;;;5087321;28;20812;-79
2024/03/14 11:57:08;;;;;;;8.88;5.20;;;;;;;;;;5087791;27;20047;-80
2024/03/14 11:59:38;;;;;;;8.77;4.63;;;;;;;;;;5090466;27;20040;-79
2024/03/14 12:02:03;;;;;;;10.05;5.20;;;;;;;;;;5066256;27;20046;-79
2024/03/14 12:04:29;;;;;;;7.78;4.68;;;;;;;;;;5087025;27;20105;-79
2024/03/14 12:06:54;;;;;;;8.52;4.40;;;;;;;;;;5086800;27;20063;-80
2024/03/14 12:09:22;;;;;;;7.18;4.22;;;;;;;;;;5090184;27;20059;-78
2024/03/14 12:11:51;;;;;;;8.27;5.10;;;;;;;;;;5094799;27;20047;-79
2024/03/14 12:14:19;;;;;;;7.28;4.22;;;;;;;;;;5080654;28;20032;-80
2024/03/14 12:16:46;;;;;;;4.93;3.28;;;;;;;;;;5075605;28;20024;-78
2024/03/14 12:19:16;;;;;;;3.97;2.53;;;;;;;;;;5065397;28;20181;-79
2024/03/14 12:22:00;;;;;;;6.73;4.17;;;;;;;;;;5077693;28;20032;-80
2024/03/14 12:24:25;;;;;;;6.40;3.78;;;;;;;;;;5090218;27;20061;-79
2024/03/14 12:26:53;;;;;;;7.38;4.32;;;;;;;;;;5088742;28;20032;-80
2024/03/14 12:29:20;;;;;;;7.25;4.60;;;;;;;;;;5095306;27;20132;-80
2024/03/14 12:31:49;;;;;;;7.55;4.60;;;;;;;;;;5066123;28;20035;-79
2024/03/14 12:34:16;;;;;;;7.38;3.88;;;;;;;;;;5057541;27;20044;-79
2024/03/14 12:36:42;;;;;;;10.13;4.60;;;;;;;;;;5088671;27;20055;-79
2024/03/14 12:39:11;;;;;;;7.30;4.53;;;;;;;;;;5093827;28;20038;-79
2024/03/14 12:41:37;;;;;;;4.55;2.70;;;;;;;;;;5095924;27;20036;-77
2024/03/14 12:44:04;;;;;;;7.10;4.75;;;;;;;;;;5095220;27;20033;-79
2024/03/14 12:46:32;;;;;;;6.43;4.05;;;;;;;;;;5060290;28;20400;-78
2024/03/14 12:49:03;;;;;;;8.07;4.90;;;;;;;;;;5081965;27;20068;-79
2024/03/14 12:51:28;;;;;;;10.25;5.70;;;;;;;;;;5090608;28;20036;-78
2024/03/14 12:53:58;;;;;;;8.57;5.35;;;;;;;;;;5075733;28;20108;-78
2024/03/14 12:56:24;;;;;;;8.27;5.30;;;;;;;;;;5081997;27;20034;-79
2024/03/14 12:58:58;;;;;;;8.85;6.22;;;;;;;;;;5088969;27;20532;-79
2024/03/14 13:01:29;;;;;;;8.43;4.10;;;;;;;;;;5076011;28;20067;-79
2024/03/14 13:03:59;;;;;;;6.75;4.50;;;;;;;;;;5079677;27;20085;-80
2024/03/14 13:06:27;;;;;;;4.35;2.92;;;;;;;;;;5086632;28;20528;-80
2024/03/14 13:09:20;;;;;;;6.60;3.55;;;;;;;;;;5076732;27;20071;-79
2024/03/14 13:12:19;;;;;;;6.72;4.60;;;;;;;;;;5089837;27;20038;-80
2024/03/14 13:15:11;;;;;;;6.70;4.35;;;;;;;;;;5068096;27;20431;-78
2024/03/14 13:17:37;;;;;;;7.22;4.97;;;;;;;;;;5087413;27;20039;-79
2024/03/14 13:20:13;;;;;;;3.33;2.28;;;;;;;;;;5084492;28;20039;-79
2024/03/14 13:22:38;;;;;;;6.35;4.32;;;;;;;;;;5074313;28;20036;-79
2024/03/14 13:25:04;;;;;;;7.15;4.15;;;;;;;;;;5065573;28;20083;-80
2024/03/14 13:27:30;;;;;;;3.83;2.35;;;;;;;;;;5061957;27;20100;-78
2024/03/14 13:29:55;;;;;;;5.15;3.42;;;;;;;;;;5082165;28;20563;-79
2024/03/14 13:32:21;;;;;;;6.82;5.10;;;;;;;;;;5086258;27;20032;-78
2024/03/14 13:34:49;;;;;;;8.48;4.90;;;;;;;;;;5090366;27;20675;-79
2024/03/14 13:37:15;;;;;;;5.90;4.25;;;;;;;;;;5080054;28;20050;-78
2024/03/14 13:39:41;;;;;;;5.47;3.85;;;;;;;;;;5085733;27;20455;-78
2024/03/14 13:42:06;;;;;;;6.18;4.07;;;;;;;;;;5080302;28;20101;-78
2024/03/14 13:44:33;;;;;;;7.25;4.35;;;;;;;;;;5067722;28;20039;-79
2024/03/14 13:46:59;;;;;;;7.40;4.60;;;;;;;;;;5078644;28;20098;-78
2024/03/14 13:49:24;;;;;;;6.93;4.40;;;;;;;;;;5081157;27;20495;-78
2024/03/14 13:51:52;;;;;;;5.75;3.88;;;;;;;;;;5089292;27;20039;-79
2024/03/14 13:54:18;;;;;;;7.22;4.40;;;;;;;;;;5088911;27;20031;-79
2024/03/14 13:56:47;;;;;;;5.82;4.22;;;;;;;;;;5066728;28;20028;-79
2024/03/14 13:59:15;;;;;;;6.07;4.18;;;;;;;;;;5078186;28;20032;-78
2024/03/14 14:01:41;;;;;;;3.53;2.63;;;;;;;;;;5079750;27;20145;-78
2024/03/14 14:04:07;;;;;;;6.57;3.70;;;;;;;;;;5092656;27;20126;-78
2024/03/14 14:06:35;;;;;;;8.25;3.78;;;;;;;;;;5096128;28;20032;-79
2024/03/14 14:09:00;;;;;;;4.22;3.00;;;;;;;;;;5086213;28;20411;-78
2024/03/14 14:11:27;;;;;;;5.00;2.53;;;;;;;;;;5061535;28;20065;-78
2024/03/14 14:13:52;;;;;;;4.88;3.72;;;;;;;;;;5077851;28;20767;-77
2024/03/14 14:16:18;;;;;;;5.78;4.15;;;;;;;;;;5078247;28;20032;-78
2024/03/14 14:18:44;;;;;;;4.78;3.78;;;;;;;;;;5068902;28;20178;-79
2024/03/14 14:21:14;;;;;;;5.90;3.80;;;;;;;;;;5077928;28;20055;-78
2024/03/14 14:23:39;;;;;;;4.10;3.10;;;;;;;;;;5067710;28;20047;-79
2024/03/14 14:26:05;;;;;;;4.60;2.83;;;;;;;;;;5086489;28;20049;-79
2024/03/14 14:28:33;;;;;;;4.65;3.67;;;;;;;;;;5078883;28;20051;-79
2024/03/14 14:30:59;;;;;;;6.32;3.22;;;;;;;;;;5078442;28;20039;-79
2024/03/14 14:33:25;;;;;;;4.97;2.88;;;;;;;;;;5073332;28;20506;-78
2024/03/14 14:35:50;;;;;;;4.55;3.47;;;;;;;;;;5072467;28;20035;-79
2024/03/14 14:38:18;;;;;;;2.92;2.53;;;;;;;;;;5068946;27;20040;-79
2024/03/14 14:40:45;;;;;;;3.70;2.45;;;;;;;;;;5088117;27;20713;-79
2024/03/14 14:43:10;;;;;;;3.75;3.30;;;;;;;;;;5079759;28;20536;-79